sensor_id;sensor_type;location;lat;lon;timestamp;temperature;humidity
490;DHT22;231;48.120;11.576;2023-07-31T02:42:30;16.70;35.40
490;DHT22;231;48.120;11.576;2023-07-31T02:44:56;16.70;35.30
490;DHT22;231;48.120;11.576;2023-07-31T02:47:23;16.60;35.50
490;DHT22;231;48.120;11.576;2023-07-31T02:49:50;16.50;36.10
490;DHT22;231;48.120;11.576;2023-07-31T02:52:17;16.40;37.00
490;DHT22;231;48.120;11.576;2023-07-31T02:54:44;16.30;37.10
490;DHT22;231;48.120;11.576;2023-07-31T02:57:11;16.10;37.70
490;DHT22;231;48.120;11.576;2023-07-31T02:59:39;16.00;38.10
490;DHT22;231;48.120;11.576;2023-07-31T03:02:06;15.90;39.50
490;DHT22;231;48.120;11.576;2023-07-31T03:04:33;15.70;40.30
490;DHT22;231;48.120;11.576;2023-07-31T03:07:00;15.60;41.70
490;DHT22;231;48.120;11.576;2023-07-31T03:09:27;15.50;43.40
490;DHT22;231;48.120;11.576;2023-07-31T03:11:53;15.40;44.80
490;DHT22;231;48.120;11.576;2023-07-31T03:14:20;15.30;46.20
490;DHT22;231;48.120;11.576;2023-07-31T03:16:49;15.30;47.60
490;DHT22;231;48.120;11.576;2023-07-31T03:19:16;15.30;48.70
490;DHT22;231;48.120;11.576;2023-07-31T03:21:42;15.20;49.50
490;DHT22;231;48.120;11.576;2023-07-31T03:24:09;15.20;49.70
490;DHT22;231;48.120;11.576;2023-07-31T03:26:37;15.10;50.70
490;DHT22;231;48.120;11.576;2023-07-31T03:29:07;15.00;52.50
490;DHT22;231;48.120;11.576;2023-07-31T03:31:33;14.90;53.90
490;DHT22;231;48.120;11.576;2023-07-31T03:34:01;14.80;55.20
490;DHT22;231;48.120;11.576;2023-07-31T03:36:28;14.70;56.70
490;DHT22;231;48.120;11.576;2023-07-31T03:38:55;14.70;58.60
490;DHT22;231;48.120;11.576;2023-07-31T03:41:22;14.60;60.10
490;DHT22;231;48.120;11.576;2023-07-31T03:43:50;14.50;62.00
490;DHT22;231;48.120;11.576;2023-07-31T03:46:17;14.50;64.20
490;DHT22;231;48.120;11.576;2023-07-31T03:48:44;14.40;66.10
490;DHT22;231;48.120;11.576;2023-07-31T03:51:12;14.40;67.70
490;DHT22;231;48.120;11.576;2023-07-31T03:53:39;14.40;69.40
490;DHT22;231;48.120;11.576;2023-07-31T03:56:06;14.30;70.80
490;DHT22;231;48.120;11.576;2023-07-31T03:58:33;14.30;72.80
490;DHT22;231;48.120;11.576;2023-07-31T04:01:00;14.30;75.40
490;DHT22;231;48.120;11.576;2023-07-31T04:03:27;14.30;76.80
490;DHT22;231;48.120;11.576;2023-07-31T04:05:54;14.30;78.10
490;DHT22;231;48.120;11.576;2023-07-31T04:08:23;14.30;79.00
490;DHT22;231;48.120;11.576;2023-07-31T04:10:50;14.40;79.70
490;DHT22;231;48.120;11.576;2023-07-31T04:13:17;14.40;80.00
490;DHT22;231;48.120;11.576;2023-07-31T04:15:48;14.40;80.10
490;DHT22;231;48.120;11.576;2023-07-31T04:18:15;14.50;80.20
490;DHT22;231;48.120;11.576;2023-07-31T04:20:42;14.50;79.40
490;DHT22;231;48.120;11.576;2023-07-31T04:23:09;14.50;79.50
490;DHT22;231;48.120;11.576;2023-07-31T04:25:37;14.60;79.30
490;DHT22;231;48.120;11.576;2023-07-31T04:28:04;14.70;78.00
490;DHT22;231;48.120;11.576;2023-07-31T04:30:31;14.80;76.20
490;DHT22;231;48.120;11.576;2023-07-31T04:32:58;14.90;73.60
490;DHT22;231;48.120;11.576;2023-07-31T04:35:25;15.10;70.60
490;DHT22;231;48.120;11.576;2023-07-31T04:37:52;15.10;68.00
490;DHT22;231;48.120;11.576;2023-07-31T04:40:18;15.20;65.80
490;DHT22;231;48.120;11.576;2023-07-31T04:42:46;15.30;64.40
490;DHT22;231;48.120;11.576;2023-07-31T04:45:14;15.40;63.30
490;DHT22;231;48.120;11.576;2023-07-31T04:47:41;15.40;62.30
490;DHT22;231;48.120;11.576;2023-07-31T04:50:08;15.50;60.80
490;DHT22;231;48.120;11.576;2023-07-31T04:52:35;15.60;59.50
490;DHT22;231;48.120;11.576;2023-07-31T04:55:02;15.60;58.10
490;DHT22;231;48.120;11.576;2023-07-31T04:57:29;15.70;57.50
490;DHT22;231;48.120;11.576;2023-07-31T04:59:57;15.70;56.70
490;DHT22;231;48.120;11.576;2023-07-31T05:02:24;15.80;55.70
490;DHT22;231;48.120;11.576;2023-07-31T05:04:51;15.90;54.50
490;DHT22;231;48.120;11.576;2023-07-31T05:07:18;16.00;53.50
490;DHT22;231;48.120;11.576;2023-07-31T05:09:45;16.10;52.70
490;DHT22;231;48.120;11.576;2023-07-31T05:12:11;16.20;51.60
490;DHT22;231;48.120;11.576;2023-07-31T05:14:38;16.30;50.40
490;DHT22;231;48.120;11.576;2023-07-31T05:17:07;16.50;48.30
490;DHT22;231;48.120;11.576;2023-07-31T05:19:33;16.70;46.10
490;DHT22;231;48.120;11.576;2023-07-31T05:22:00;16.80;44.40
490;DHT22;231;48.120;11.576;2023-07-31T05:24:27;17.00;42.40
490;DHT22;231;48.120;11.576;2023-07-31T05:26:54;17.20;40.60
490;DHT22;231;48.120;11.576;2023-07-31T05:29:21;17.40;39.20
490;DHT22;231;48.120;11.576;2023-07-31T05:31:47;17.70;37.30
490;DHT22;231;48.120;11.576;2023-07-31T05:34:16;17.90;34.70
490;DHT22;231;48.120;11.576;2023-07-31T05:36:43;18.20;32.70
490;DHT22;231;48.120;11.576;2023-07-31T05:39:10;18.50;30.00
490;DHT22;231;48.120;11.576;2023-07-31T05:41:36;18.80;27.80
490;DHT22;231;48.120;11.576;2023-07-31T05:44:04;19.20;26.30
490;DHT22;231;48.120;11.576;2023-07-31T05:46:30;19.40;24.10
490;DHT22;231;48.120;11.576;2023-07-31T05:48:58;19.80;22.40
490;DHT22;231;48.120;11.576;2023-07-31T05:51:27;20.20;20.40
490;DHT22;231;48.120;11.576;2023-07-31T05:53:54;20.50;19.50
490;DHT22;231;48.120;11.576;2023-07-31T05:56:21;20.90;17.80
490;DHT22;231;48.120;11.576;2023-07-31T05:58:48;21.20;16.50
490;DHT22;231;48.120;11.576;2023-07-31T06:01:16;21.60;15.90
490;DHT22;231;48.120;11.576;2023-07-31T06:03:43;21.90;14.50
490;DHT22;231;48.120;11.576;2023-07-31T06:06:09;22.30;13.70
490;DHT22;231;48.120;11.576;2023-07-31T06:08:37;22.70;12.20
490;DHT22;231;48.120;11.576;2023-07-31T06:11:05;22.80;11.00
490;DHT22;231;48.120;11.576;2023-07-31T06:13:32;23.10;10.00
490;DHT22;231;48.120;11.576;2023-07-31T06:15:59;23.60;9.40
490;DHT22;231;48.120;11.576;2023-07-31T06:18:30;24.70;7.40
490;DHT22;231;48.120;11.576;2023-07-31T06:20:57;25.90;4.60
490;DHT22;231;48.120;11.576;2023-07-31T06:23:24;27.00;2.20
490;DHT22;231;48.120;11.576;2023-07-31T06:25:52;27.60;1.00
490;DHT22;231;48.120;11.576;2023-07-31T06:28:19;28.00;1.00
490;DHT22;231;48.120;11.576;2023-07-31T06:30:46;28.30;1.00
490;DHT22;231;48.120;11.576;2023-07-31T06:33:13;28.40;1.00
490;DHT22;231;48.120;11.576;2023-07-31T06:35:40;28.50;1.00
490;DHT22;231;48.120;11.576;2023-07-31T06:38:07;28.50;1.00
490;DHT22;231;48.120;11.576;2023-07-31T06:40:34;28.30;1.00
490;DHT22;231;48.120;11.576;2023-07-31T06:43:05;27.80;1.00
490;DHT22;231;48.120;11.576;2023-07-31T06:45:33;27.30;1.00
490;DHT22;231;48.120;11.576;2023-07-31T06:48:01;26.80;1.00
490;DHT22;231;48.120;11.576;2023-07-31T06:50:28;26.50;1.00
490;DHT22;231;48.120;11.576;2023-07-31T06:52:55;26.20;1.00
490;DHT22;231;48.120;11.576;2023-07-31T06:55:22;26.20;1.00
490;DHT22;231;48.120;11.576;2023-07-31T06:57:51;26.20;1.00
490;DHT22;231;48.120;11.576;2023-07-31T07:00:20;26.40;1.00
490;DHT22;231;48.120;11.576;2023-07-31T07:02:47;26.50;1.00
490;DHT22;231;48.120;11.576;2023-07-31T07:05:15;26.70;1.00
490;DHT22;231;48.120;11.576;2023-07-31T07:07:42;26.90;1.00
490;DHT22;231;48.120;11.576;2023-07-31T07:10:10;27.00;1.00
490;DHT22;231;48.120;11.576;2023-07-31T07:12:37;27.10;1.00
490;DHT22;231;48.120;11.576;2023-07-31T07:15:04;27.30;1.00
490;DHT22;231;48.120;11.576;2023-07-31T07:17:33;27.60;1.00
490;DHT22;231;48.120;11.576;2023-07-31T07:20:00;27.90;1.00
490;DHT22;231;48.120;11.576;2023-07-31T07:22:29;28.40;1.00
490;DHT22;231;48.120;11.576;2023-07-31T07:24:56;29.20;1.00
490;DHT22;231;48.120;11.576;2023-07-31T07:27:22;30.60;1.00
490;DHT22;231;48.120;11.576;2023-07-31T07:29:50;31.80;1.00
490;DHT22;231;48.120;11.576;2023-07-31T07:32:18;33.10;1.00
490;DHT22;231;48.120;11.576;2023-07-31T07:34:47;34.50;1.00
490;DHT22;231;48.120;11.576;2023-07-31T07:37:14;35.10;1.00
490;DHT22;231;48.120;11.576;2023-07-31T07:39:41;36.00;1.00
490;DHT22;231;48.120;11.576;2023-07-31T07:42:08;36.70;1.00
490;DHT22;231;48.120;11.576;2023-07-31T07:44:35;37.30;1.00
490;DHT22;231;48.120;11.576;2023-07-31T07:47:02;38.30;1.00
490;DHT22;231;48.120;11.576;2023-07-31T07:49:31;39.00;1.00
490;DHT22;231;48.120;11.576;2023-07-31T07:51:59;39.70;1.00
490;DHT22;231;48.120;11.576;2023-07-31T07:54:26;39.80;1.00
490;DHT22;231;48.120;11.576;2023-07-31T07:56:53;40.20;1.00
490;DHT22;231;48.120;11.576;2023-07-31T07:59:20;40.50;1.00
490;DHT22;231;48.120;11.576;2023-07-31T08:01:47;40.20;1.00
490;DHT22;231;48.120;11.576;2023-07-31T08:04:14;39.60;1.00
490;DHT22;231;48.120;11.576;2023-07-31T08:06:40;39.30;1.00
490;DHT22;231;48.120;11.576;2023-07-31T08:09:09;39.10;1.00
490;DHT22;231;48.120;11.576;2023-07-31T08:11:36;39.50;1.00
490;DHT22;231;48.120;11.576;2023-07-31T08:14:03;39.60;1.00
490;DHT22;231;48.120;11.576;2023-07-31T08:16:30;40.50;1.00
490;DHT22;231;48.120;11.576;2023-07-31T08:18:56;41.60;1.00
490;DHT22;231;48.120;11.576;2023-07-31T08:21:23;42.80;1.00
490;DHT22;231;48.120;11.576;2023-07-31T08:23:50;43.90;1.00
490;DHT22;231;48.120;11.576;2023-07-31T08:26:19;43.90;1.00
490;DHT22;231;48.120;11.576;2023-07-31T08:28:46;43.30;1.00
490;DHT22;231;48.120;11.576;2023-07-31T08:31:13;42.80;1.00
490;DHT22;231;48.120;11.576;2023-07-31T08:33:40;42.40;1.00
490;DHT22;231;48.120;11.576;2023-07-31T08:36:07;42.00;1.00
490;DHT22;231;48.120;11.576;2023-07-31T08:38:34;41.20;1.00
490;DHT22;231;48.120;11.576;2023-07-31T08:41:03;40.20;1.00
490;DHT22;231;48.120;11.576;2023-07-31T08:43:31;39.00;1.00
490;DHT22;231;48.120;11.576;2023-07-31T08:45:59;37.90;1.00
490;DHT22;231;48.120;11.576;2023-07-31T08:48:26;36.70;1.00
490;DHT22;231;48.120;11.576;2023-07-31T08:50:54;35.50;1.00
490;DHT22;231;48.120;11.576;2023-07-31T08:53:21;34.20;1.00
490;DHT22;231;48.120;11.576;2023-07-31T08:55:49;33.10;1.00
490;DHT22;231;48.120;11.576;2023-07-31T08:58:17;32.10;1.00
490;DHT22;231;48.120;11.576;2023-07-31T09:00:46;31.30;1.00
490;DHT22;231;48.120;11.576;2023-07-31T09:03:14;30.40;1.00
490;DHT22;231;48.120;11.576;2023-07-31T09:05:43;29.80;1.00
490;DHT22;231;48.120;11.576;2023-07-31T09:08:11;29.30;1.00
490;DHT22;231;48.120;11.576;2023-07-31T09:10:41;29.10;1.00
490;DHT22;231;48.120;11.576;2023-07-31T09:13:08;29.10;1.00
490;DHT22;231;48.120;11.576;2023-07-31T09:15:35;29.30;1.00
490;DHT22;231;48.120;11.576;2023-07-31T09:18:05;29.70;1.00
490;DHT22;231;48.120;11.576;2023-07-31T09:20:32;30.70;1.00
490;DHT22;231;48.120;11.576;2023-07-31T09:23:06;32.00;1.00
490;DHT22;231;48.120;11.576;2023-07-31T09:25:34;33.20;1.00
490;DHT22;231;48.120;11.576;2023-07-31T09:28:02;34.50;1.00
490;DHT22;231;48.120;11.576;2023-07-31T09:30:30;35.90;1.00
490;DHT22;231;48.120;11.576;2023-07-31T09:33:01;37.10;1.00
490;DHT22;231;48.120;11.576;2023-07-31T09:35:31;38.20;1.00
490;DHT22;231;48.120;11.576;2023-07-31T09:37:59;38.90;1.00
490;DHT22;231;48.120;11.576;2023-07-31T09:40:28;39.30;1.00
490;DHT22;231;48.120;11.576;2023-07-31T09:42:59;39.50;1.00
490;DHT22;231;48.120;11.576;2023-07-31T09:45:26;39.80;1.00
490;DHT22;231;48.120;11.576;2023-07-31T09:47:53;40.90;1.00
490;DHT22;231;48.120;11.576;2023-07-31T09:50:22;42.60;1.00
490;DHT22;231;48.120;11.576;2023-07-31T09:52:50;44.50;1.00
490;DHT22;231;48.120;11.576;2023-07-31T09:55:18;46.20;1.00
490;DHT22;231;48.120;11.576;2023-07-31T09:57:47;47.70;1.00
490;DHT22;231;48.120;11.576;2023-07-31T10:00:16;48.40;1.00
490;DHT22;231;48.120;11.576;2023-07-31T10:02:45;48.50;1.00
490;DHT22;231;48.120;11.576;2023-07-31T10:05:14;48.90;1.00
490;DHT22;231;48.120;11.576;2023-07-31T10:07:43;48.90;1.00
490;DHT22;231;48.120;11.576;2023-07-31T10:10:15;47.70;1.00
490;DHT22;231;48.120;11.576;2023-07-31T10:12:44;46.80;1.00
490;DHT22;231;48.120;11.576;2023-07-31T10:15:12;45.50;1.00
490;DHT22;231;48.120;11.576;2023-07-31T10:17:40;45.20;1.00
490;DHT22;231;48.120;11.576;2023-07-31T10:20:07;45.80;1.00
490;DHT22;231;48.120;11.576;2023-07-31T10:22:35;47.10;1.00
490;DHT22;231;48.120;11.576;2023-07-31T10:25:04;48.00;1.00
490;DHT22;231;48.120;11.576;2023-07-31T10:27:34;48.80;1.00
490;DHT22;231;48.120;11.576;2023-07-31T10:30:04;49.30;1.00
490;DHT22;231;48.120;11.576;2023-07-31T10:32:32;49.90;1.00
490;DHT22;231;48.120;11.576;2023-07-31T10:35:01;50.10;1.00
490;DHT22;231;48.120;11.576;2023-07-31T10:37:29;49.50;1.00
490;DHT22;231;48.120;11.576;2023-07-31T10:40:03;48.90;1.00
490;DHT22;231;48.120;11.576;2023-07-31T10:42:34;47.70;1.00
490;DHT22;231;48.120;11.576;2023-07-31T10:45:03;46.60;1.00
490;DHT22;231;48.120;11.576;2023-07-31T10:47:30;45.40;1.00
490;DHT22;231;48.120;11.576;2023-07-31T10:50:28;44.10;1.00
490;DHT22;231;48.120;11.576;2023-07-31T10:52:56;42.50;1.00
490;DHT22;231;48.120;11.576;2023-07-31T10:55:28;41.20;1.00
490;DHT22;231;48.120;11.576;2023-07-31T10:57:58;39.90;1.00
490;DHT22;231;48.120;11.576;2023-07-31T11:00:31;38.80;1.00
490;DHT22;231;48.120;11.576;2023-07-31T11:03:08;37.90;1.00
490;DHT22;231;48.120;11.576;2023-07-31T11:05:49;37.30;1.00
490;DHT22;231;48.120;11.576;2023-07-31T11:08:18;37.30;1.00
490;DHT22;231;48.120;11.576;2023-07-31T11:10:46;38.00;1.00
490;DHT22;231;48.120;11.576;2023-07-31T11:13:15;38.80;1.00
490;DHT22;231;48.120;11.576;2023-07-31T11:15:42;38.70;1.00
490;DHT22;231;48.120;11.576;2023-07-31T11:18:09;38.40;1.00
490;DHT22;231;48.120;11.576;2023-07-31T11:20:37;38.80;1.00
490;DHT22;231;48.120;11.576;2023-07-31T11:23:08;39.60;1.00
490;DHT22;231;48.120;11.576;2023-07-31T11:25:37;39.90;1.00
490;DHT22;231;48.120;11.576;2023-07-31T11:28:05;39.80;1.00
490;DHT22;231;48.120;11.576;2023-07-31T11:30:34;40.50;1.00
490;DHT22;231;48.120;11.576;2023-07-31T11:33:02;41.90;1.00
490;DHT22;231;48.120;11.576;2023-07-31T11:35:31;42.90;1.00
490;DHT22;231;48.120;11.576;2023-07-31T11:37:58;43.40;1.00
490;DHT22;231;48.120;11.576;2023-07-31T11:40:25;43.50;1.00
490;DHT22;231;48.120;11.576;2023-07-31T11:42:58;43.40;1.00
490;DHT22;231;48.120;11.576;2023-07-31T11:45:26;44.10;1.00
490;DHT22;231;48.120;11.576;2023-07-31T11:47:56;44.80;1.00
490;DHT22;231;48.120;11.576;2023-07-31T11:50:24;44.80;1.00
490;DHT22;231;48.120;11.576;2023-07-31T11:52:54;44.40;1.00
490;DHT22;231;48.120;11.576;2023-07-31T11:55:22;44.20;1.00
490;DHT22;231;48.120;11.576;2023-07-31T11:57:50;44.60;1.00
490;DHT22;231;48.120;11.576;2023-07-31T12:00:17;45.30;1.00
490;DHT22;231;48.120;11.576;2023-07-31T12:02:44;46.00;1.00
490;DHT22;231;48.120;11.576;2023-07-31T12:05:13;46.60;1.00
490;DHT22;231;48.120;11.576;2023-07-31T12:07:48;47.10;1.00
490;DHT22;231;48.120;11.576;2023-07-31T12:10:26;47.50;1.00
490;DHT22;231;48.120;11.576;2023-07-31T12:13:01;47.50;1.00
490;DHT22;231;48.120;11.576;2023-07-31T12:15:30;47.30;1.00
490;DHT22;231;48.120;11.576;2023-07-31T12:17:58;47.10;1.00
490;DHT22;231;48.120;11.576;2023-07-31T12:20:26;47.10;1.00
490;DHT22;231;48.120;11.576;2023-07-31T12:22:56;47.10;1.00
490;DHT22;231;48.120;11.576;2023-07-31T12:25:28;46.80;1.00
490;DHT22;231;48.120;11.576;2023-07-31T12:27:56;45.70;1.00
490;DHT22;231;48.120;11.576;2023-07-31T12:30:29;44.80;1.00
490;DHT22;231;48.120;11.576;2023-07-31T12:32:56;43.80;1.00
490;DHT22;231;48.120;11.576;2023-07-31T12:35:23;43.70;1.00
490;DHT22;231;48.120;11.576;2023-07-31T12:37:52;43.80;1.00
490;DHT22;231;48.120;11.576;2023-07-31T12:40:18;43.90;1.00
490;DHT22;231;48.120;11.576;2023-07-31T12:42:45;43.50;1.00
490;DHT22;231;48.120;11.576;2023-07-31T12:45:13;43.40;1.00
490;DHT22;231;48.120;11.576;2023-07-31T12:47:40;43.20;1.00
490;DHT22;231;48.120;11.576;2023-07-31T12:50:07;42.70;1.00
490;DHT22;231;48.120;11.576;2023-07-31T12:52:34;41.70;1.00
490;DHT22;231;48.120;11.576;2023-07-31T12:55:03;40.20;1.00
490;DHT22;231;48.120;11.576;2023-07-31T12:57:30;38.80;1.00
490;DHT22;231;48.120;11.576;2023-07-31T12:59:57;37.60;1.00
490;DHT22;231;48.120;11.576;2023-07-31T13:02:24;36.80;1.00
490;DHT22;231;48.120;11.576;2023-07-31T13:04:50;36.00;1.00
490;DHT22;231;48.120;11.576;2023-07-31T13:07:18;35.40;1.00
490;DHT22;231;48.120;11.576;2023-07-31T13:09:45;35.00;1.00
490;DHT22;231;48.120;11.576;2023-07-31T13:12:13;34.60;1.00
490;DHT22;231;48.120;11.576;2023-07-31T13:14:40;34.40;1.00
490;DHT22;231;48.120;11.576;2023-07-31T13:17:07;34.20;1.00
490;DHT22;231;48.120;11.576;2023-07-31T13:19:34;33.80;1.00
490;DHT22;231;48.120;11.576;2023-07-31T13:22:01;33.60;1.00
490;DHT22;231;48.120;11.576;2023-07-31T13:24:27;33.20;1.00
490;DHT22;231;48.120;11.576;2023-07-31T13:26:55;33.00;1.00
490;DHT22;231;48.120;11.576;2023-07-31T13:29:23;32.80;1.00
490;DHT22;231;48.120;11.576;2023-07-31T13:31:51;32.50;1.00
490;DHT22;231;48.120;11.576;2023-07-31T13:34:18;32.50;1.00
490;DHT22;231;48.120;11.576;2023-07-31T13:36:45;32.20;1.00
490;DHT22;231;48.120;11.576;2023-07-31T13:39:12;32.00;1.00
490;DHT22;231;48.120;11.576;2023-07-31T13:41:39;31.80;1.00
490;DHT22;231;48.120;11.576;2023-07-31T13:44:06;31.60;1.00
490;DHT22;231;48.120;11.576;2023-07-31T13:46:33;31.50;1.00
490;DHT22;231;48.120;11.576;2023-07-31T13:49:00;31.50;1.00
490;DHT22;231;48.120;11.576;2023-07-31T13:51:27;31.40;1.00
490;DHT22;231;48.120;11.576;2023-07-31T13:53:54;31.20;1.00
490;DHT22;231;48.120;11.576;2023-07-31T13:56:20;30.90;1.00
490;DHT22;231;48.120;11.576;2023-07-31T13:58:47;30.60;1.00
490;DHT22;231;48.120;11.576;2023-07-31T14:01:14;30.30;1.00
490;DHT22;231;48.120;11.576;2023-07-31T14:03:42;30.00;1.00
490;DHT22;231;48.120;11.576;2023-07-31T14:06:09;29.70;1.00
490;DHT22;231;48.120;11.576;2023-07-31T14:08:36;29.50;1.00
490;DHT22;231;48.120;11.576;2023-07-31T14:11:03;29.50;1.00
490;DHT22;231;48.120;11.576;2023-07-31T14:13:30;29.80;1.00
490;DHT22;231;48.120;11.576;2023-07-31T14:15:56;30.00;1.00
490;DHT22;231;48.120;11.576;2023-07-31T14:18:23;30.00;1.00
490;DHT22;231;48.120;11.576;2023-07-31T14:20:51;30.00;1.00
490;DHT22;231;48.120;11.576;2023-07-31T14:23:18;29.80;1.00
490;DHT22;231;48.120;11.576;2023-07-31T14:25:45;29.70;1.00
490;DHT22;231;48.120;11.576;2023-07-31T14:28:12;29.60;1.00
490;DHT22;231;48.120;11.576;2023-07-31T14:30:39;29.60;1.00
490;DHT22;231;48.120;11.576;2023-07-31T14:33:05;29.50;1.00
490;DHT22;231;48.120;11.576;2023-07-31T14:35:33;29.50;1.00
490;DHT22;231;48.120;11.576;2023-07-31T14:38:02;29.50;1.00
490;DHT22;231;48.120;11.576;2023-07-31T14:40:29;29.80;1.00
490;DHT22;231;48.120;11.576;2023-07-31T20:43:09;20.40;9.60
490;DHT22;231;48.120;11.576;2023-07-31T20:45:41;20.40;9.60
490;DHT22;231;48.120;11.576;2023-07-31T20:48:08;20.40;9.40
490;DHT22;231;48.120;11.576;2023-07-31T20:50:36;20.40;10.00
490;DHT22;231;48.120;11.576;2023-07-31T20:53:03;20.40;9.20
490;DHT22;231;48.120;11.576;2023-07-31T20:55:31;20.40;9.10
490;DHT22;231;48.120;11.576;2023-07-31T20:57:58;20.40;9.20
490;DHT22;231;48.120;11.576;2023-07-31T21:00:26;20.40;9.20
490;DHT22;231;48.120;11.576;2023-07-31T21:02:53;20.40;8.70
490;DHT22;231;48.120;11.576;2023-07-31T21:05:20;20.50;9.00
490;DHT22;231;48.120;11.576;2023-07-31T21:07:47;20.40;8.90
490;DHT22;231;48.120;11.576;2023-07-31T21:10:13;20.40;8.90
490;DHT22;231;48.120;11.576;2023-07-31T21:12:40;20.50;9.20
490;DHT22;231;48.120;11.576;2023-07-31T21:15:08;20.40;9.40
490;DHT22;231;48.120;11.576;2023-07-31T21:17:36;20.40;9.40
490;DHT22;231;48.120;11.576;2023-07-31T21:20:04;20.40;9.50
490;DHT22;231;48.120;11.576;2023-07-31T21:22:31;20.40;9.60
490;DHT22;231;48.120;11.576;2023-07-31T21:24:58;20.40;9.70
490;DHT22;231;48.120;11.576;2023-07-31T21:27:25;20.30;9.90
490;DHT22;231;48.120;11.576;2023-07-31T21:29:51;20.20;10.00
490;DHT22;231;48.120;11.576;2023-07-31T21:32:18;20.20;10.10
490;DHT22;231;48.120;11.576;2023-07-31T21:34:48;20.20;13.30
490;DHT22;231;48.120;11.576;2023-07-31T21:37:14;20.10;21.40
490;DHT22;231;48.120;11.576;2023-07-31T21:39:41;19.90;22.50
490;DHT22;231;48.120;11.576;2023-07-31T21:42:08;19.70;20.90
490;DHT22;231;48.120;11.576;2023-07-31T21:44:35;19.50;22.20
490;DHT22;231;48.120;11.576;2023-07-31T21:47:02;19.30;23.20
490;DHT22;231;48.120;11.576;2023-07-31T21:49:29;19.20;24.80
490;DHT22;231;48.120;11.576;2023-07-31T21:51:57;19.10;23.90
490;DHT22;231;48.120;11.576;2023-07-31T21:54:24;19.00;25.00
490;DHT22;231;48.120;11.576;2023-07-31T21:56:51;19.00;24.70
490;DHT22;231;48.120;11.576;2023-07-31T21:59:18;18.90;23.70
490;DHT22;231;48.120;11.576;2023-07-31T22:01:45;18.90;23.20
490;DHT22;231;48.120;11.576;2023-07-31T22:04:11;18.90;23.10
490;DHT22;231;48.120;11.576;2023-07-31T22:06:38;18.90;21.80
490;DHT22;231;48.120;11.576;2023-07-31T22:09:06;18.90;20.90
490;DHT22;231;48.120;11.576;2023-07-31T22:11:33;18.90;20.00
490;DHT22;231;48.120;11.576;2023-07-31T22:14:00;18.90;19.80
490;DHT22;231;48.120;11.576;2023-07-31T22:16:27;18.90;19.70
490;DHT22;231;48.120;11.576;2023-07-31T22:18:54;19.00;19.70
490;DHT22;231;48.120;11.576;2023-07-31T22:21:21;19.00;18.60
490;DHT22;231;48.120;11.576;2023-07-31T22:23:48;19.10;17.30
490;DHT22;231;48.120;11.576;2023-07-31T22:26:16;19.20;16.80
490;DHT22;231;48.120;11.576;2023-07-31T22:28:43;19.30;16.10
490;DHT22;231;48.120;11.576;2023-07-31T22:31:10;19.40;15.20
490;DHT22;231;48.120;11.576;2023-07-31T22:33:37;19.50;16.70
490;DHT22;231;48.120;11.576;2023-07-31T22:36:04;19.50;21.80
490;DHT22;231;48.120;11.576;2023-07-31T22:38:31;19.40;21.10
490;DHT22;231;48.120;11.576;2023-07-31T22:41:00;19.30;20.80
490;DHT22;231;48.120;11.576;2023-07-31T22:43:28;19.20;18.60
490;DHT22;231;48.120;11.576;2023-07-31T22:45:55;19.20;17.60
490;DHT22;231;48.120;11.576;2023-07-31T22:48:22;19.20;20.20
490;DHT22;231;48.120;11.576;2023-07-31T22:50:48;19.20;28.40
490;DHT22;231;48.120;11.576;2023-07-31T22:53:15;19.10;31.10
490;DHT22;231;48.120;11.576;2023-07-31T22:55:42;18.90;33.80
490;DHT22;231;48.120;11.576;2023-07-31T22:58:09;18.60;37.50
490;DHT22;231;48.120;11.576;2023-07-31T23:00:37;18.50;38.30
490;DHT22;231;48.120;11.576;2023-07-31T23:03:03;18.30;40.00
490;DHT22;231;48.120;11.576;2023-07-31T23:05:31;18.10;41.50
490;DHT22;231;48.120;11.576;2023-07-31T23:07:58;17.90;41.60
490;DHT22;231;48.120;11.576;2023-07-31T23:10:26;17.80;43.30
490;DHT22;231;48.120;11.576;2023-07-31T23:12:53;17.70;43.30
490;DHT22;231;48.120;11.576;2023-07-31T23:15:20;17.70;46.60
490;DHT22;231;48.120;11.576;2023-07-31T23:17:48;17.70;46.50
490;DHT22;231;48.120;11.576;2023-07-31T23:20:15;17.70;47.30
490;DHT22;231;48.120;11.576;2023-07-31T23:22:41;17.60;46.30
490;DHT22;231;48.120;11.576;2023-07-31T23:25:09;17.70;46.70
490;DHT22;231;48.120;11.576;2023-07-31T23:27:35;17.80;45.50
490;DHT22;231;48.120;11.576;2023-07-31T23:30:03;17.80;42.40
490;DHT22;231;48.120;11.576;2023-07-31T23:32:30;17.80;40.80
490;DHT22;231;48.120;11.576;2023-07-31T23:34:58;17.80;38.30
490;DHT22;231;48.120;11.576;2023-07-31T23:37:25;17.90;35.30
490;DHT22;231;48.120;11.576;2023-07-31T23:39:51;17.90;32.20
490;DHT22;231;48.120;11.576;2023-07-31T23:42:18;17.90;30.00
490;DHT22;231;48.120;11.576;2023-07-31T23:44:45;18.00;28.40
490;DHT22;231;48.120;11.576;2023-07-31T23:47:12;18.00;27.20
490;DHT22;231;48.120;11.576;2023-07-31T23:49:38;18.10;26.60
490;DHT22;231;48.120;11.576;2023-07-31T23:52:08;18.20;25.80
490;DHT22;231;48.120;11.576;2023-07-31T23:54:35;18.20;25.20
490;DHT22;231;48.120;11.576;2023-07-31T23:57:02;18.20;23.80
490;DHT22;231;48.120;11.576;2023-07-31T23:59:29;18.20;23.10
